Angola, Indiana
Current Conditions -  °F | °C
As of 5:15 AM on Thursday 23 Oct 2014 (Local Time) from KANQ Reporting Station
NA  
Wind Chill: 30°   Ceiling: NA
Heat Index: 30°   Visibility: NA
Dew Point: 12°   Wind: 0mph
Humidity: 47%   Direction: NA
Pressure: 30.25"   Gusts: NA
Location:  41.63°N, 85°W
Report Text: KANQ 230915Z AUTO 00000KT M01/M11 A3025 RMK
Loading
Personal Weather Stations






























Interactive Weather Map
Tropical Storm Tracking
New forecast layout! Learn more

10-Day Weather Forecast

Advertisements
Track Severe Weather on mobile